sensor_id;sensor_type;location;lat;lon;timestamp;pressure;altitude;pressure_sealevel;temperature;humidity
73842;BME280;62184;52.006;5.924;2024-02-26T00:01:12;99200.25;;;12.13;48.55
73842;BME280;62184;52.006;5.924;2024-02-26T00:03:38;99199.22;;;12.15;48.65
73842;BME280;62184;52.006;5.924;2024-02-26T00:06:05;99205.28;;;12.19;48.48
73842;BME280;62184;52.006;5.924;2024-02-26T00:08:31;99205.34;;;12.17;48.43
73842;BME280;62184;52.006;5.924;2024-02-26T00:10:58;99207.09;;;12.18;48.36
73842;BME280;62184;52.006;5.924;2024-02-26T00:13:24;99206.13;;;12.19;48.57
73842;BME280;62184;52.006;5.924;2024-02-26T00:15:50;99205.13;;;12.22;48.46
73842;BME280;62184;52.006;5.924;2024-02-26T00:18:19;99204.25;;;12.21;48.43
73842;BME280;62184;52.006;5.924;2024-02-26T00:20:46;99202.44;;;12.22;48.30
73842;BME280;62184;52.006;5.924;2024-02-26T00:23:14;99211.41;;;12.21;48.72
73842;BME280;62184;52.006;5.924;2024-02-26T00:25:41;99206.22;;;12.18;48.32
73842;BME280;62184;52.006;5.924;2024-02-26T00:28:07;99210.03;;;12.14;48.26
73842;BME280;62184;52.006;5.924;2024-02-26T00:30:34;99203.81;;;12.13;48.52
73842;BME280;62184;52.006;5.924;2024-02-26T00:33:00;99208.44;;;12.10;48.52
73842;BME280;62184;52.006;5.924;2024-02-26T00:35:29;99202.22;;;12.09;48.57
73842;BME280;62184;52.006;5.924;2024-02-26T00:37:56;99202.06;;;12.12;48.45
73842;BME280;62184;52.006;5.924;2024-02-26T00:40:22;99197.50;;;12.14;48.46
73842;BME280;62184;52.006;5.924;2024-02-26T00:42:48;99193.13;;;12.13;48.60
73842;BME280;62184;52.006;5.924;2024-02-26T00:45:15;99192.47;;;12.08;48.80
73842;BME280;62184;52.006;5.924;2024-02-26T00:47:42;99202.31;;;12.08;48.45
73842;BME280;62184;52.006;5.924;2024-02-26T00:50:09;99194.47;;;12.05;48.79
73842;BME280;62184;52.006;5.924;2024-02-26T00:52:38;99189.28;;;12.02;48.60
73842;BME280;62184;52.006;5.924;2024-02-26T00:55:06;99191.25;;;11.98;48.70
73842;BME280;62184;52.006;5.924;2024-02-26T00:57:33;99196.88;;;11.93;48.84
73842;BME280;62184;52.006;5.924;2024-02-26T01:00:00;99190.75;;;11.91;48.86
73842;BME280;62184;52.006;5.924;2024-02-26T01:02:26;99187.66;;;11.83;49.08
73842;BME280;62184;52.006;5.924;2024-02-26T01:04:53;99191.28;;;11.82;49.47
73842;BME280;62184;52.006;5.924;2024-02-26T01:07:19;99188.00;;;11.77;49.31
73842;BME280;62184;52.006;5.924;2024-02-26T01:09:48;99184.63;;;11.74;49.71
73842;BME280;62184;52.006;5.924;2024-02-26T01:12:15;99191.91;;;11.72;49.61
73842;BME280;62184;52.006;5.924;2024-02-26T01:14:41;99182.81;;;11.74;49.51
73842;BME280;62184;52.006;5.924;2024-02-26T01:17:08;99189.81;;;11.77;49.40
73842;BME280;62184;52.006;5.924;2024-02-26T01:19:34;99182.03;;;11.72;49.70
73842;BME280;62184;52.006;5.924;2024-02-26T01:22:00;99191.69;;;11.75;49.75
73842;BME280;62184;52.006;5.924;2024-02-26T01:24:27;99180.13;;;11.74;49.33
73842;BME280;62184;52.006;5.924;2024-02-26T01:26:56;99172.31;;;11.71;49.62
73842;BME280;62184;52.006;5.924;2024-02-26T01:29:22;99177.75;;;11.70;49.74
73842;BME280;62184;52.006;5.924;2024-02-26T01:31:49;99184.91;;;11.69;49.99
73842;BME280;62184;52.006;5.924;2024-02-26T01:34:15;99181.44;;;11.67;49.85
73842;BME280;62184;52.006;5.924;2024-02-26T01:36:41;99177.03;;;11.66;50.02
73842;BME280;62184;52.006;5.924;2024-02-26T01:39:08;99170.31;;;11.59;49.98
73842;BME280;62184;52.006;5.924;2024-02-26T01:41:34;99173.13;;;11.56;50.18
73842;BME280;62184;52.006;5.924;2024-02-26T01:44:03;99189.28;;;11.54;49.97
73842;BME280;62184;52.006;5.924;2024-02-26T01:46:31;99194.53;;;11.56;50.13
73842;BME280;62184;52.006;5.924;2024-02-26T01:48:59;99206.09;;;11.57;50.24
73842;BME280;62184;52.006;5.924;2024-02-26T01:51:28;99193.66;;;11.55;50.53
73842;BME280;62184;52.006;5.924;2024-02-26T01:53:56;99203.53;;;11.55;50.36
73842;BME280;62184;52.006;5.924;2024-02-26T01:56:24;99196.44;;;11.54;50.35
73842;BME280;62184;52.006;5.924;2024-02-26T01:58:50;99214.91;;;11.59;50.30
73842;BME280;62184;52.006;5.924;2024-02-26T02:01:21;99219.22;;;11.61;50.57
73842;BME280;62184;52.006;5.924;2024-02-26T02:03:51;99230.53;;;11.66;50.31
73842;BME280;62184;52.006;5.924;2024-02-26T02:06:18;99231.16;;;11.71;50.44
73842;BME280;62184;52.006;5.924;2024-02-26T02:08:46;99229.06;;;11.76;50.43
73842;BME280;62184;52.006;5.924;2024-02-26T02:11:12;99230.44;;;11.83;50.39
73842;BME280;62184;52.006;5.924;2024-02-26T02:13:40;99233.75;;;11.88;50.18
73842;BME280;62184;52.006;5.924;2024-02-26T02:16:06;99236.06;;;11.95;49.97
73842;BME280;62184;52.006;5.924;2024-02-26T02:18:36;99238.56;;;11.98;49.62
73842;BME280;62184;52.006;5.924;2024-02-26T02:21:05;99236.66;;;12.00;49.56
73842;BME280;62184;52.006;5.924;2024-02-26T02:23:31;99240.13;;;12.02;49.52
73842;BME280;62184;52.006;5.924;2024-02-26T02:25:58;99240.13;;;12.02;49.37
73842;BME280;62184;52.006;5.924;2024-02-26T02:28:26;99254.38;;;12.02;49.69
73842;BME280;62184;52.006;5.924;2024-02-26T02:30:53;99241.66;;;12.06;49.59
73842;BME280;62184;52.006;5.924;2024-02-26T02:33:21;99251.34;;;12.08;49.47
73842;BME280;62184;52.006;5.924;2024-02-26T02:35:49;99254.09;;;12.07;49.42
73842;BME280;62184;52.006;5.924;2024-02-26T02:38:18;99254.72;;;12.12;49.47
73842;BME280;62184;52.006;5.924;2024-02-26T02:40:44;99253.63;;;12.16;49.30
73842;BME280;62184;52.006;5.924;2024-02-26T02:43:11;99250.84;;;12.17;48.99
73842;BME280;62184;52.006;5.924;2024-02-26T02:45:37;99257.16;;;12.16;49.33
73842;BME280;62184;52.006;5.924;2024-02-26T02:48:04;99259.91;;;12.15;49.17
73842;BME280;62184;52.006;5.924;2024-02-26T02:50:31;99257.34;;;12.13;49.36
73842;BME280;62184;52.006;5.924;2024-02-26T02:52:57;99253.84;;;12.11;49.42
73842;BME280;62184;52.006;5.924;2024-02-26T02:55:26;99256.78;;;12.07;49.15
73842;BME280;62184;52.006;5.924;2024-02-26T02:57:53;99252.38;;;12.06;49.52
73842;BME280;62184;52.006;5.924;2024-02-26T03:00:20;99253.34;;;12.05;49.31
73842;BME280;62184;52.006;5.924;2024-02-26T03:02:46;99264.22;;;12.02;49.29
73842;BME280;62184;52.006;5.924;2024-02-26T03:05:13;99262.25;;;12.05;49.45
73842;BME280;62184;52.006;5.924;2024-02-26T03:07:39;99256.78;;;12.07;49.49
73842;BME280;62184;52.006;5.924;2024-02-26T03:10:07;99261.09;;;12.09;49.22
73842;BME280;62184;52.006;5.924;2024-02-26T03:12:36;99262.91;;;12.09;49.38
73842;BME280;62184;52.006;5.924;2024-02-26T03:15:03;99263.69;;;12.11;49.49
73842;BME280;62184;52.006;5.924;2024-02-26T03:17:30;99256.03;;;12.05;49.21
73842;BME280;62184;52.006;5.924;2024-02-26T03:19:56;99259.66;;;12.04;49.30
73842;BME280;62184;52.006;5.924;2024-02-26T03:22:23;99258.84;;;12.02;49.20
73842;BME280;62184;52.006;5.924;2024-02-26T03:24:49;99267.91;;;11.99;49.65
73842;BME280;62184;52.006;5.924;2024-02-26T03:27:16;99267.25;;;11.96;49.44
73842;BME280;62184;52.006;5.924;2024-02-26T03:29:45;99265.06;;;11.86;49.42
73842;BME280;62184;52.006;5.924;2024-02-26T03:32:11;99258.16;;;11.82;49.11
73842;BME280;62184;52.006;5.924;2024-02-26T03:34:37;99270.72;;;11.80;49.64
73842;BME280;62184;52.006;5.924;2024-02-26T03:37:04;99270.50;;;11.85;49.80
73842;BME280;62184;52.006;5.924;2024-02-26T03:39:30;99280.19;;;11.87;49.83
73842;BME280;62184;52.006;5.924;2024-02-26T03:41:57;99281.13;;;11.86;49.76
73842;BME280;62184;52.006;5.924;2024-02-26T03:44:23;99273.25;;;11.83;49.60
73842;BME280;62184;52.006;5.924;2024-02-26T03:46:52;99276.34;;;11.76;49.85
73842;BME280;62184;52.006;5.924;2024-02-26T03:49:19;99270.81;;;11.63;49.84
73842;BME280;62184;52.006;5.924;2024-02-26T03:51:45;99290.78;;;11.56;50.21
73842;BME280;62184;52.006;5.924;2024-02-26T03:54:11;99286.50;;;11.53;50.55
73842;BME280;62184;52.006;5.924;2024-02-26T03:56:38;99271.31;;;11.54;50.49
73842;BME280;62184;52.006;5.924;2024-02-26T03:59:04;99277.91;;;11.47;50.71
73842;BME280;62184;52.006;5.924;2024-02-26T04:01:31;99280.38;;;11.34;51.01
73842;BME280;62184;52.006;5.924;2024-02-26T04:04:00;99281.41;;;11.32;50.97
73842;BME280;62184;52.006;5.924;2024-02-26T04:06:26;99278.44;;;11.21;50.99
73842;BME280;62184;52.006;5.924;2024-02-26T04:08:52;99287.22;;;11.23;51.18
73842;BME280;62184;52.006;5.924;2024-02-26T04:11:19;99271.59;;;11.15;51.38
73842;BME280;62184;52.006;5.924;2024-02-26T04:13:46;99289.63;;;11.11;51.69
73842;BME280;62184;52.006;5.924;2024-02-26T04:16:12;99295.72;;;11.13;51.75
73842;BME280;62184;52.006;5.924;2024-02-26T04:18:39;99292.22;;;11.13;51.64
73842;BME280;62184;52.006;5.924;2024-02-26T04:21:08;99298.66;;;11.09;51.44
73842;BME280;62184;52.006;5.924;2024-02-26T04:23:34;99306.41;;;11.13;51.58
73842;BME280;62184;52.006;5.924;2024-02-26T04:26:01;99311.69;;;11.15;51.81
73842;BME280;62184;52.006;5.924;2024-02-26T04:28:27;99317.09;;;11.13;51.62
73842;BME280;62184;52.006;5.924;2024-02-26T04:30:54;99298.72;;;11.07;51.75
73842;BME280;62184;52.006;5.924;2024-02-26T04:33:20;99300.84;;;11.01;51.76
73842;BME280;62184;52.006;5.924;2024-02-26T04:35:47;99299.66;;;10.89;52.27
73842;BME280;62184;52.006;5.924;2024-02-26T04:38:16;99308.94;;;10.82;52.30
73842;BME280;62184;52.006;5.924;2024-02-26T04:40:42;99311.59;;;10.82;52.24
73842;BME280;62184;52.006;5.924;2024-02-26T04:43:10;99314.13;;;10.85;52.35
73842;BME280;62184;52.006;5.924;2024-02-26T04:45:36;99314.91;;;10.87;52.39
73842;BME280;62184;52.006;5.924;2024-02-26T04:48:03;99323.81;;;10.88;52.48
73842;BME280;62184;52.006;5.924;2024-02-26T04:50:29;99326.38;;;10.89;52.59
73842;BME280;62184;52.006;5.924;2024-02-26T04:52:56;99336.03;;;10.92;52.47
73842;BME280;62184;52.006;5.924;2024-02-26T04:55:25;99324.31;;;10.77;52.78
73842;BME280;62184;52.006;5.924;2024-02-26T04:57:51;99321.75;;;10.74;52.96
73842;BME280;62184;52.006;5.924;2024-02-26T05:00:18;99333.38;;;10.73;52.92
73842;BME280;62184;52.006;5.924;2024-02-26T05:02:44;99332.69;;;10.69;53.36
73842;BME280;62184;52.006;5.924;2024-02-26T05:05:11;99334.44;;;10.70;53.25
73842;BME280;62184;52.006;5.924;2024-02-26T05:07:39;99331.91;;;10.67;53.39
73842;BME280;62184;52.006;5.924;2024-02-26T05:10:07;99335.44;;;10.68;53.39
73842;BME280;62184;52.006;5.924;2024-02-26T05:12:36;99338.91;;;10.70;53.69
73842;BME280;62184;52.006;5.924;2024-02-26T05:15:04;99326.56;;;10.67;53.76
73842;BME280;62184;52.006;5.924;2024-02-26T05:17:31;99334.50;;;10.69;53.54
73842;BME280;62184;52.006;5.924;2024-02-26T05:19:57;99336.06;;;10.73;53.76
73842;BME280;62184;52.006;5.924;2024-02-26T05:22:24;99336.81;;;10.76;53.74
73842;BME280;62184;52.006;5.924;2024-02-26T05:24:50;99338.63;;;10.76;53.90
73842;BME280;62184;52.006;5.924;2024-02-26T05:27:16;99341.28;;;10.76;53.70
73842;BME280;62184;52.006;5.924;2024-02-26T05:29:45;99337.97;;;10.71;53.95
73842;BME280;62184;52.006;5.924;2024-02-26T05:32:12;99337.00;;;10.72;53.92
73842;BME280;62184;52.006;5.924;2024-02-26T05:34:38;99346.75;;;10.73;54.15
73842;BME280;62184;52.006;5.924;2024-02-26T05:37:05;99349.72;;;10.67;54.21
73842;BME280;62184;52.006;5.924;2024-02-26T05:39:31;99354.19;;;10.66;54.11
73842;BME280;62184;52.006;5.924;2024-02-26T05:41:57;99349.09;;;10.62;54.16
73842;BME280;62184;52.006;5.924;2024-02-26T05:44:26;99353.78;;;10.57;54.42
73842;BME280;62184;52.006;5.924;2024-02-26T05:46:55;99355.81;;;10.52;54.51
73842;BME280;62184;52.006;5.924;2024-02-26T05:49:22;99353.50;;;10.63;54.43
73842;BME280;62184;52.006;5.924;2024-02-26T05:51:48;99360.47;;;10.65;54.33
73842;BME280;62184;52.006;5.924;2024-02-26T05:54:15;99360.91;;;10.56;54.57
73842;BME280;62184;52.006;5.924;2024-02-26T05:56:41;99357.38;;;10.56;54.72
73842;BME280;62184;52.006;5.924;2024-02-26T05:59:08;99364.50;;;10.55;54.68
73842;BME280;62184;52.006;5.924;2024-02-26T06:01:34;99362.94;;;10.51;54.86
73842;BME280;62184;52.006;5.924;2024-02-26T06:04:03;99363.69;;;10.55;54.74
73842;BME280;62184;52.006;5.924;2024-02-26T06:06:30;99360.78;;;10.59;54.84
73842;BME280;62184;52.006;5.924;2024-02-26T06:08:56;99354.44;;;10.62;54.78
73842;BME280;62184;52.006;5.924;2024-02-26T06:11:22;99361.50;;;10.63;54.93
73842;BME280;62184;52.006;5.924;2024-02-26T06:13:49;99365.00;;;10.63;54.82
73842;BME280;62184;52.006;5.924;2024-02-26T06:16:15;99370.59;;;10.59;54.60
73842;BME280;62184;52.006;5.924;2024-02-26T06:18:42;99367.91;;;10.59;54.83
73842;BME280;62184;52.006;5.924;2024-02-26T06:21:11;99384.66;;;10.62;54.95
73842;BME280;62184;52.006;5.924;2024-02-26T06:23:38;99384.56;;;10.64;55.09
73842;BME280;62184;52.006;5.924;2024-02-26T06:26:05;99385.44;;;10.64;55.04
73842;BME280;62184;52.006;5.924;2024-02-26T06:28:31;99398.72;;;10.66;54.86
73842;BME280;62184;52.006;5.924;2024-02-26T06:30:58;99394.38;;;10.63;54.82
73842;BME280;62184;52.006;5.924;2024-02-26T06:33:24;99395.34;;;10.62;55.15
73842;BME280;62184;52.006;5.924;2024-02-26T06:35:51;99397.84;;;10.65;55.03
73842;BME280;62184;52.006;5.924;2024-02-26T06:38:20;99403.91;;;10.69;54.88
73842;BME280;62184;52.006;5.924;2024-02-26T06:40:46;99405.78;;;10.67;55.13
73842;BME280;62184;52.006;5.924;2024-02-26T06:43:12;99416.47;;;10.67;54.88
73842;BME280;62184;52.006;5.924;2024-02-26T06:45:39;99403.84;;;10.70;54.83
73842;BME280;62184;52.006;5.924;2024-02-26T06:48:06;99411.94;;;10.69;54.75
73842;BME280;62184;52.006;5.924;2024-02-26T06:50:33;99418.06;;;10.71;54.98
73842;BME280;62184;52.006;5.924;2024-02-26T06:52:59;99422.75;;;10.66;54.93
73842;BME280;62184;52.006;5.924;2024-02-26T06:55:28;99416.59;;;10.64;55.10
73842;BME280;62184;52.006;5.924;2024-02-26T06:57:55;99422.75;;;10.66;55.25
73842;BME280;62184;52.006;5.924;2024-02-26T07:00:21;99424.56;;;10.65;55.15
73842;BME280;62184;52.006;5.924;2024-02-26T07:02:47;99425.97;;;10.72;55.01
73842;BME280;62184;52.006;5.924;2024-02-26T07:05:14;99429.34;;;10.77;55.12
73842;BME280;62184;52.006;5.924;2024-02-26T07:07:40;99434.81;;;10.74;54.99
73842;BME280;62184;52.006;5.924;2024-02-26T07:10:08;99435.03;;;10.70;55.07
73842;BME280;62184;52.006;5.924;2024-02-26T07:12:37;99439.25;;;10.74;55.20
73842;BME280;62184;52.006;5.924;2024-02-26T07:15:04;99446.66;;;10.69;55.06
73842;BME280;62184;52.006;5.924;2024-02-26T07:17:31;99448.38;;;10.70;55.32
73842;BME280;62184;52.006;5.924;2024-02-26T07:19:58;99426.34;;;10.65;55.17
73842;BME280;62184;52.006;5.924;2024-02-26T07:22:24;99453.47;;;10.56;55.16
73842;BME280;62184;52.006;5.924;2024-02-26T07:24:51;99442.97;;;10.53;55.57
73842;BME280;62184;52.006;5.924;2024-02-26T07:27:18;99453.78;;;10.50;55.62
73842;BME280;62184;52.006;5.924;2024-02-26T07:29:47;99447.72;;;10.46;55.97
73842;BME280;62184;52.006;5.924;2024-02-26T07:32:13;99458.25;;;10.49;56.01
73842;BME280;62184;52.006;5.924;2024-02-26T07:34:40;99467.13;;;10.50;55.91
73842;BME280;62184;52.006;5.924;2024-02-26T07:37:06;99459.91;;;10.52;56.11
73842;BME280;62184;52.006;5.924;2024-02-26T07:39:33;99467.00;;;10.53;56.12
73842;BME280;62184;52.006;5.924;2024-02-26T07:41:59;99462.72;;;10.49;56.04
73842;BME280;62184;52.006;5.924;2024-02-26T07:44:26;99467.13;;;10.50;56.51
73842;BME280;62184;52.006;5.924;2024-02-26T07:46:55;99467.00;;;10.53;56.41
73842;BME280;62184;52.006;5.924;2024-02-26T07:49:21;99468.56;;;10.57;56.27
73842;BME280;62184;52.006;5.924;2024-02-26T07:51:47;99467.06;;;10.51;56.61
73842;BME280;62184;52.006;5.924;2024-02-26T07:54:14;99476.75;;;10.54;56.13
73842;BME280;62184;52.006;5.924;2024-02-26T07:56:40;99477.50;;;10.56;56.61
73842;BME280;62184;52.006;5.924;2024-02-26T07:59:06;99473.28;;;10.52;56.40
73842;BME280;62184;52.006;5.924;2024-02-26T08:01:33;99478.59;;;10.52;56.74
73842;BME280;62184;52.006;5.924;2024-02-26T08:04:02;99485.94;;;10.47;56.82
73842;BME280;62184;52.006;5.924;2024-02-26T08:06:29;99489.34;;;10.50;56.78
73842;BME280;62184;52.006;5.924;2024-02-26T08:08:55;99483.00;;;10.53;56.92
73842;BME280;62184;52.006;5.924;2024-02-26T08:11:21;99501.84;;;10.50;56.71
73842;BME280;62184;52.006;5.924;2024-02-26T08:13:48;99492.81;;;10.52;56.77
73842;BME280;62184;52.006;5.924;2024-02-26T08:16:14;99489.22;;;10.53;56.91
73842;BME280;62184;52.006;5.924;2024-02-26T08:18:41;99489.06;;;10.56;57.05
73842;BME280;62184;52.006;5.924;2024-02-26T08:21:10;99502.28;;;10.59;56.52
73842;BME280;62184;52.006;5.924;2024-02-26T08:23:37;99507.63;;;10.59;56.82
73842;BME280;62184;52.006;5.924;2024-02-26T08:26:04;99506.69;;;10.60;56.66
73842;BME280;62184;52.006;5.924;2024-02-26T08:28:31;99512.22;;;10.56;56.82
73842;BME280;62184;52.006;5.924;2024-02-26T08:30:57;99512.09;;;10.59;56.87
73842;BME280;62184;52.006;5.924;2024-02-26T08:33:23;99512.16;;;10.57;56.78
73842;BME280;62184;52.006;5.924;2024-02-26T08:35:50;99524.56;;;10.58;56.97
73842;BME280;62184;52.006;5.924;2024-02-26T08:38:19;99520.22;;;10.56;57.05
73842;BME280;62184;52.006;5.924;2024-02-26T08:40:45;99515.75;;;10.56;56.85
73842;BME280;62184;52.006;5.924;2024-02-26T08:43:12;99532.38;;;10.63;56.97
73842;BME280;62184;52.006;5.924;2024-02-26T08:45:38;99537.72;;;10.63;56.98
73842;BME280;62184;52.006;5.924;2024-02-26T08:48:05;99525.44;;;10.59;57.14
73842;BME280;62184;52.006;5.924;2024-02-26T08:50:33;99524.63;;;10.57;57.11
73842;BME280;62184;52.006;5.924;2024-02-26T08:52:59;99523.69;;;10.58;56.99
73842;BME280;62184;52.006;5.924;2024-02-26T08:55:28;99526.53;;;10.55;57.37
73842;BME280;62184;52.006;5.924;2024-02-26T08:57:54;99521.25;;;10.53;57.77
73842;BME280;62184;52.006;5.924;2024-02-26T09:00:21;99531.13;;;10.51;57.90
73842;BME280;62184;52.006;5.924;2024-02-26T09:02:47;99537.28;;;10.53;58.28
73842;BME280;62184;52.006;5.924;2024-02-26T09:05:14;99531.53;;;10.62;57.93
73842;BME280;62184;52.006;5.924;2024-02-26T09:07:40;99532.22;;;10.66;58.20
73842;BME280;62184;52.006;5.924;2024-02-26T09:10:08;99554.75;;;10.60;58.55
73842;BME280;62184;52.006;5.924;2024-02-26T09:12:38;99548.13;;;10.69;58.02
73842;BME280;62184;52.006;5.924;2024-02-26T09:15:06;99549.91;;;10.68;58.39
73842;BME280;62184;52.006;5.924;2024-02-26T09:17:33;99561.59;;;10.66;58.66
73842;BME280;62184;52.006;5.924;2024-02-26T09:19:59;99565.88;;;10.70;58.37
73842;BME280;62184;52.006;5.924;2024-02-26T09:22:26;99569.84;;;10.61;58.54
73842;BME280;62184;52.006;5.924;2024-02-26T09:24:52;99563.41;;;10.65;58.23
73842;BME280;62184;52.006;5.924;2024-02-26T09:27:18;99576.69;;;10.67;58.77
73842;BME280;62184;52.006;5.924;2024-02-26T09:29:47;99589.91;;;10.70;58.74
73842;BME280;62184;52.006;5.924;2024-02-26T09:32:14;99583.75;;;10.68;58.98
73842;BME280;62184;52.006;5.924;2024-02-26T09:34:40;99586.44;;;10.68;58.65
73842;BME280;62184;52.006;5.924;2024-02-26T09:37:07;99587.38;;;10.67;58.62
73842;BME280;62184;52.006;5.924;2024-02-26T09:39:33;99594.44;;;10.68;59.31
73842;BME280;62184;52.006;5.924;2024-02-26T09:42:01;99587.06;;;10.74;58.85
73842;BME280;62184;52.006;5.924;2024-02-26T09:44:31;99595.75;;;10.80;59.31
73842;BME280;62184;52.006;5.924;2024-02-26T09:47:05;99604.81;;;10.75;59.09
73842;BME280;62184;52.006;5.924;2024-02-26T09:49:36;99605.00;;;10.71;59.17
73842;BME280;62184;52.006;5.924;2024-02-26T09:52:04;99605.69;;;10.76;59.33
73842;BME280;62184;52.006;5.924;2024-02-26T09:54:32;99613.75;;;10.74;58.55
73842;BME280;62184;52.006;5.924;2024-02-26T09:57:00;99611.94;;;10.75;59.25
73842;BME280;62184;52.006;5.924;2024-02-26T09:59:29;99610.19;;;10.74;59.13
73842;BME280;62184;52.006;5.924;2024-02-26T10:02:09;99614.81;;;10.70;59.15
73842;BME280;62184;52.006;5.924;2024-02-26T10:04:39;99616.63;;;10.70;59.08
73842;BME280;62184;52.006;5.924;2024-02-26T10:07:10;99633.31;;;10.75;59.19
73842;BME280;62184;52.006;5.924;2024-02-26T10:09:37;99625.56;;;10.69;59.60
73842;BME280;62184;52.006;5.924;2024-02-26T10:12:04;99632.44;;;10.74;58.69
73842;BME280;62184;52.006;5.924;2024-02-26T10:14:31;99635.06;;;10.76;59.14
73842;BME280;62184;52.006;5.924;2024-02-26T10:16:58;99645.47;;;10.82;58.95
73842;BME280;62184;52.006;5.924;2024-02-26T10:19:28;99643.59;;;10.84;58.86
73842;BME280;62184;52.006;5.924;2024-02-26T10:21:59;99649.81;;;10.85;59.34
73842;BME280;62184;52.006;5.924;2024-02-26T10:24:28;99645.63;;;10.79;58.51
73842;BME280;62184;52.006;5.924;2024-02-26T10:26:56;99645.34;;;10.85;59.37
73842;BME280;62184;52.006;5.924;2024-02-26T10:29:24;99653.34;;;10.85;59.28
73842;BME280;62184;52.006;5.924;2024-02-26T10:31:51;99666.75;;;10.84;59.25
73842;BME280;62184;52.006;5.924;2024-02-26T10:34:19;99676.78;;;10.78;59.53
73842;BME280;62184;52.006;5.924;2024-02-26T10:36:48;99674.66;;;10.87;59.34
73842;BME280;62184;52.006;5.924;2024-02-26T10:39:15;99673.91;;;10.83;59.46
73842;BME280;62184;52.006;5.924;2024-02-26T10:41:42;99674.59;;;10.88;59.35
73842;BME280;62184;52.006;5.924;2024-02-26T10:44:10;99669.38;;;10.85;59.33
73842;BME280;62184;52.006;5.924;2024-02-26T10:46:38;99686.22;;;10.87;59.28
73842;BME280;62184;52.006;5.924;2024-02-26T10:49:08;99685.34;;;10.87;59.32
73842;BME280;62184;52.006;5.924;2024-02-26T10:51:43;99695.88;;;10.90;59.48
73842;BME280;62184;52.006;5.924;2024-02-26T10:54:16;99700.28;;;10.91;59.53
73842;BME280;62184;52.006;5.924;2024-02-26T10:56:42;99709.84;;;10.96;58.85
73842;BME280;62184;52.006;5.924;2024-02-26T10:59:11;99705.50;;;10.94;60.55
73842;BME280;62184;52.006;5.924;2024-02-26T11:01:39;99722.75;;;11.05;60.15
73842;BME280;62184;52.006;5.924;2024-02-26T11:04:06;99730.72;;;11.07;60.39
73842;BME280;62184;52.006;5.924;2024-02-26T11:06:35;99724.25;;;11.12;60.37
73842;BME280;62184;52.006;5.924;2024-02-26T11:09:02;99735.88;;;11.11;59.53
73842;BME280;62184;52.006;5.924;2024-02-26T11:11:32;99739.28;;;10.95;58.72
73842;BME280;62184;52.006;5.924;2024-02-26T11:14:01;99740.97;;;10.77;58.37
73842;BME280;62184;52.006;5.924;2024-02-26T11:16:30;99750.09;;;10.92;59.30
73842;BME280;62184;52.006;5.924;2024-02-26T11:18:57;99750.69;;;10.98;59.22
73842;BME280;62184;52.006;5.924;2024-02-26T11:21:26;99748.25;;;10.94;59.37
73842;BME280;62184;52.006;5.924;2024-02-26T11:23:53;99750.97;;;10.92;58.55
73842;BME280;62184;52.006;5.924;2024-02-26T11:26:20;99753.75;;;10.89;58.52
73842;BME280;62184;52.006;5.924;2024-02-26T11:28:52;99761.44;;;10.97;59.42
73842;BME280;62184;52.006;5.924;2024-02-26T11:31:19;99755.56;;;10.89;58.35
73842;BME280;62184;52.006;5.924;2024-02-26T11:33:50;99752.59;;;10.96;58.78
73842;BME280;62184;52.006;5.924;2024-02-26T11:36:17;99770.22;;;11.00;59.50
73842;BME280;62184;52.006;5.924;2024-02-26T11:38:46;99757.44;;;11.07;59.69
73842;BME280;62184;52.006;5.924;2024-02-26T11:41:13;99769.16;;;11.04;59.61
73842;BME280;62184;52.006;5.924;2024-02-26T11:43:53;99773.81;;;10.99;59.23
73842;BME280;62184;52.006;5.924;2024-02-26T11:46:28;99766.78;;;10.97;58.79
73842;BME280;62184;52.006;5.924;2024-02-26T11:48:58;99754.97;;;11.02;59.01
73842;BME280;62184;52.006;5.924;2024-02-26T11:51:26;99767.66;;;10.97;59.78
73842;BME280;62184;52.006;5.924;2024-02-26T11:53:54;99756.97;;;10.97;59.62
73842;BME280;62184;52.006;5.924;2024-02-26T11:56:22;99758.19;;;10.90;58.92
73842;BME280;62184;52.006;5.924;2024-02-26T11:58:57;99761.31;;;11.00;59.70
73842;BME280;62184;52.006;5.924;2024-02-26T12:01:51;99774.34;;;11.07;59.01
73842;BME280;62184;52.006;5.924;2024-02-26T12:04:19;99772.34;;;11.12;59.36
73842;BME280;62184;52.006;5.924;2024-02-26T12:06:54;99775.97;;;11.11;59.61
73842;BME280;62184;52.006;5.924;2024-02-26T12:09:34;99783.03;;;11.12;58.95
73842;BME280;62184;52.006;5.924;2024-02-26T12:12:03;99786.50;;;11.14;59.16
73842;BME280;62184;52.006;5.924;2024-02-26T12:14:37;99781.97;;;11.16;59.59
73842;BME280;62184;52.006;5.924;2024-02-26T12:17:04;99774.69;;;11.20;59.24
73842;BME280;62184;52.006;5.924;2024-02-26T12:19:31;99797.19;;;11.14;58.95
73842;BME280;62184;52.006;5.924;2024-02-26T12:21:58;99802.41;;;11.18;59.18
73842;BME280;62184;52.006;5.924;2024-02-26T12:24:24;99791.13;;;11.11;59.67
73842;BME280;62184;52.006;5.924;2024-02-26T12:26:50;99795.72;;;11.07;59.81
73842;BME280;62184;52.006;5.924;2024-02-26T12:29:17;99794.78;;;11.08;59.52
73842;BME280;62184;52.006;5.924;2024-02-26T12:31:47;99806.81;;;11.19;59.56
73842;BME280;62184;52.006;5.924;2024-02-26T12:34:13;99801.41;;;11.20;59.69
73842;BME280;62184;52.006;5.924;2024-02-26T12:36:40;99813.63;;;11.26;59.46
73842;BME280;62184;52.006;5.924;2024-02-26T12:39:07;99811.69;;;11.29;59.39
73842;BME280;62184;52.006;5.924;2024-02-26T12:41:33;99818.75;;;11.30;59.82
73842;BME280;62184;52.006;5.924;2024-02-26T12:44:01;99818.69;;;11.32;59.38
73842;BME280;62184;52.006;5.924;2024-02-26T12:46:27;99825.78;;;11.33;59.28
73842;BME280;62184;52.006;5.924;2024-02-26T12:48:58;99826.66;;;11.33;60.03
73842;BME280;62184;52.006;5.924;2024-02-26T12:51:25;99837.16;;;11.38;59.74
73842;BME280;62184;52.006;5.924;2024-02-26T12:53:52;99831.81;;;11.38;59.65
73842;BME280;62184;52.006;5.924;2024-02-26T12:56:21;99834.34;;;11.41;59.29
73842;BME280;62184;52.006;5.924;2024-02-26T12:58:48;99837.00;;;11.41;59.49
73842;BME280;62184;52.006;5.924;2024-02-26T13:01:18;99849.44;;;11.42;59.28